Tiempo atmosférico en la estación meteorológica de Talavera De La Reina, Toledo (372 m.)



Fecha
DESCASC
Temp. máxima en grados centígrados (hora)
DESCASC
Temp. mínima en grados centígrados (hora)
DESCASC
Temp. media en grados centígrados
DESCASC
Racha de viento máxima en m/sg (hora)
DESCASC
Velocidad máxima media en intervalos de 10 minutos(hora)
DESCASC
Precipitaciones diarias en mm
DESCASC
Precipitaciones de 00:00 a 06:00 en mm
DESCASC
Precipitaciones de 06:00 a 12:00 en mm
DESCASC
Precipitaciones de 12:00 a 18:00 en mm
DESCASC
Precipitaciones de 18:00 a 24:00 en mm
DESCASC
16-06-2019 31.1 (16:10) 11.5 (03:40) 21.3 -- (--) -- (--) 0 0 0 0 0
15-06-2019 28.1 (18:30) 8.1 (07:00) 18.1 -- (--) -- (--) 0 0 0 0 0
14-06-2019 25.3 (17:10) 10.7 (06:50) 18 -- (--) -- (--) 0 0 0 0 0
13-06-2019 29.7 (18:10) 8.8 (00:00) 19.3 -- (--) -- (--) 0 0 0 0 0
12-06-2019 28.7 (18:00) 8.6 (00:00) 18.7 -- (--) -- (--) 0 0 0 0 0
11-06-2019 24.7 (17:40) 11.6 (00:00) 18.2 -- (--) -- (--) 0 0 0 0 0
10-06-2019 29.2 (17:10) 10 (00:00) 19.6 -- (--) -- (--) 0 0 0 0 0
09-06-2019 28.8 (18:00) 10.8 (00:00) 19.8 -- (--) -- (--) 0 0 0 0 0
08-06-2019 30.2 (19:20) 8.3 (00:00) 19.3 -- (--) -- (--) 0 0 0 0 0
07-06-2019 24.5 (19:30) 10 (00:00) 17.3 -- (--) -- (--) 0 0 0 0 0
06-06-2019 25.8 (17:10) 7.8 (00:00) 16.8 -- (--) -- (--) 0 0 0 0 0
05-06-2019 24.3 (15:30) 12.5 (00:00) 18.4 -- (--) -- (--) 0 0 0 0 0
04-06-2019 29.8 (16:30) 18.4 (00:00) 24.1 -- (--) -- (--) 0 0 0 0 0
03-06-2019 36 (17:30) 17.9 (00:00) 26.9 -- (--) -- (--) 0 0 0 0 0
02-06-2019 36.5 (17:40) 16.9 (00:00) 26.7 -- (--) -- (--) 0 0 0 0 0
01-06-2019 36 (19:20) 16.2 (00:00) 26.1 -- (--) -- (--) 0 0 0 0 0
31-05-2019 34.8 (19:40) 16.7 (00:00) 25.8 -- (--) -- (--) 0 0 0 0 0
30-05-2019 32.7 (18:50) 15.2 (00:00) 24 -- (--) -- (--) 0 0 0 0 0
29-05-2019 30.5 (18:50) 14.1 (00:00) 22.3 -- (--) -- (--) 0 0 0 0 0
28-05-2019 -- (--) -- (--) -- -- (--) -- (--) -- 0 0 -- --
27-05-2019 33.7 (17:20) 13.7 (00:00) 23.7 -- (--) -- (--) 0 0 0 0 0
26-05-2019 31.1 (17:50) 13.2 (00:00) 22.2 -- (--) -- (--) 0 0 0 0 0
25-05-2019 27.7 (18:10) 11.1 (00:00) 19.4 -- (--) -- (--) 0 0 0 0 0
24-05-2019 28.6 (18:10) 13.8 (00:00) 21.2 -- (--) -- (--) 0 0 0 0 0
23-05-2019 32 (17:50) 11.6 (00:00) 21.8 -- (--) -- (--) 0.6 0 0 0.6 0
22-05-2019 31.2 (19:10) 11.8 (00:00) 21.5 -- (--) -- (--) 0 0 0 0 0

Gráficas

Temp. máximas Temp. mínimas Temp. medias Precipitaciones Rachas de viento máximas Velocidades máximas media en intervalos de 10 minutos

Datos horarios

Fecha y hora oficial Temperatura (ºC) Velocidad del viento (km/h) Dirección del viento Racha (km/h) Dirección de racha Precipitación (mm) Presión (hPa) Tendencia (hPa) Humedad (%)
2019-06-20 23:00:00 22.8 7 Oeste 21 Oeste 0 -- -- 32
2019-06-20 22:00:00 25.5 14 Oeste 34 Noroeste 0 -- -- 27
2019-06-20 21:00:00 27.3 21 Oeste 41 Oeste 0 -- -- 26
2019-06-20 20:00:00 28.1 21 Oeste 37 Oeste 0 -- -- 27
2019-06-20 19:00:00 28.1 12 Oeste 36 Oeste 0 -- -- 28
2019-06-20 18:00:00 29.7 22 Oeste 40 Oeste 0 -- -- 25
2019-06-20 17:00:00 29.3 16 Oeste 44 Sudoeste 0 -- -- 27
2019-06-20 16:00:00 28.9 14 Oeste 33 Oeste 0 -- -- 28
2019-06-20 15:00:00 29.3 12 Noroeste 29 Noroeste 0 -- -- 28
2019-06-20 14:00:00 27.9 8 Noroeste 28 Noroeste 0 -- -- 32
2019-06-20 13:00:00 26.8 9 Noroeste 29 Noroeste 0 -- -- 33
2019-06-20 12:00:00 25.8 12 Oeste 30 Oeste 0 -- -- 40
2019-06-20 11:00:00 23.6 9 Oeste 20 Noroeste 0 -- -- 47
2019-06-20 10:00:00 22.2 6 Noroeste 14 Oeste 0 -- -- 51
2019-06-20 09:00:00 18.2 3 Sur 6 Sur 0 -- -- 67
2019-06-20 08:00:00 13.7 0 Calma 7 Oeste 0 -- -- 81
2019-06-20 07:00:00 13.1 0 Calma 3 Este 0 -- -- 80
2019-06-20 06:00:00 13.7 2 Nordeste 4 Nordeste 0 -- -- 80
2019-06-20 05:00:00 14.3 2 Oeste 4 Noroeste 0 -- -- 75
2019-06-20 04:00:00 15.3 4 Oeste 8 Sudoeste 0 -- -- 68
2019-06-20 03:00:00 17.6 4 Sudoeste 13 Sudoeste 0 -- -- 61
2019-06-20 02:00:00 17.3 3 Sudoeste 9 Sudoeste 0 -- -- 62
2019-06-20 01:00:00 18.9 3 Sudoeste 8 Sur 0 -- -- 56
2019-06-20 00:00:00 20.3 3 Sudoeste 8 Noroeste 0 -- -- 51
2019-06-19 23:00:00 21.5 5 Noroeste 18 Oeste 0 -- -- 46
2019-06-19 22:00:00 24.1 10 Oeste 38 Oeste 0 -- -- 37
2019-06-19 21:00:00 25.7 20 Oeste 34 Oeste 0 -- -- 31
2019-06-19 20:00:00 27 20 Oeste 39 Noroeste 0 -- -- 29
2019-06-19 19:00:00 27.5 24 Oeste 44 Oeste 0 -- -- 28
2019-06-19 18:00:00 28 21 Oeste 41 Noroeste 0 -- -- 29
2019-06-19 17:00:00 28.1 21 Noroeste 41 Oeste 0 -- -- 27
2019-06-19 16:00:00 27.6 22 Oeste 47 Noroeste 0 -- -- 30
2019-06-19 15:00:00 26.1 17 Oeste -- -- -- -- -- 36
2019-06-19 14:00:00 25.5 19 Oeste 37 Oeste 0 -- -- 36
2019-06-19 13:00:00 25.2 18 Noroeste 39 Noroeste 0 -- -- 43
2019-06-19 12:00:00 24.6 15 Noroeste 37 Noroeste 0 -- -- 48
2019-06-19 11:00:00 22.6 16 Noroeste 33 Noroeste 0 -- -- 51
2019-06-19 10:00:00 21.6 18 Oeste 33 Oeste 0 -- -- 53
2019-06-19 09:00:00 19.8 17 Oeste 29 Oeste 0 -- -- 60
2019-06-19 08:00:00 17.4 4 Oeste 14 Oeste 0 -- -- 68
2019-06-19 07:00:00 17.6 9 Oeste 20 Oeste 0 -- -- 64
2019-06-19 06:00:00 18 12 Oeste 18 Oeste 0 -- -- 60
2019-06-19 05:00:00 18.1 9 Oeste 14 Oeste 0 -- -- 56
2019-06-19 04:00:00 19.1 11 Oeste 28 Oeste 0 -- -- 52
2019-06-19 03:00:00 20.5 17 Oeste 30 Oeste 0 -- -- 47
2019-06-19 02:00:00 20.7 10 Oeste 24 Oeste 0 -- -- 56
2019-06-19 01:00:00 22 14 Oeste 25 Oeste 0 -- -- 50
2019-06-19 00:00:00 22.7 13 Oeste 23 Noroeste 0 -- -- 46
2019-06-18 23:00:00 23 7 Noroeste 23 Noroeste 0 -- -- 44
2019-06-18 22:00:00 25.1 13 Noroeste 40 Oeste 0 -- -- 34
2019-06-18 21:00:00 26.8 23 Oeste 41 Noroeste 0 -- -- 29
2019-06-18 20:00:00 28.3 22 Oeste 46 Oeste 0 -- -- 29
2019-06-18 19:00:00 29.1 27 Oeste 49 Noroeste 0 -- -- 28
2019-06-18 18:00:00 29.9 28 Oeste 50 Oeste 0 -- -- 23
2019-06-18 17:00:00 30.2 21 Oeste 53 Oeste 0 -- -- 18
2019-06-18 16:00:00 30.9 21 Oeste 49 Oeste 0 -- -- 13
2019-06-18 15:00:00 29.8 18 Oeste 45 Noroeste 0 -- -- 11
2019-06-18 14:00:00 29 14 Oeste 33 Oeste 0 -- -- 12
2019-06-18 13:00:00 27.9 4 Sudeste 23 Sudoeste 0 -- -- 14
2019-06-18 12:00:00 26.3 6 Noroeste 23 Oeste 0 -- -- 22
2019-06-18 11:00:00 24.3 11 Oeste 23 Oeste 0 -- -- 27
2019-06-18 10:00:00 23.5 9 Noroeste 30 Noroeste 0 -- -- 33
2019-06-18 09:00:00 20.7 14 Noroeste 27 Noroeste 0 -- -- 39
2019-06-18 08:00:00 17.1 9 Noroeste 19 Oeste 0 -- -- 46
2019-06-18 07:00:00 14.6 5 Oeste 10 Sudoeste 0 -- -- 47
2019-06-18 06:00:00 15.6 4 Sudoeste 7 Sudoeste 0 -- -- 44
2019-06-18 05:00:00 18.8 3 Oeste 12 Noroeste 0 -- -- 31
2019-06-18 04:00:00 18.5 6 Oeste 13 Oeste 0 -- -- 30
2019-06-18 03:00:00 20.8 4 Oeste 10 Oeste 0 -- -- 32
2019-06-18 02:00:00 24.2 5 Sudoeste 13 Sudoeste 0 -- -- 23
2019-06-18 01:00:00 25.4 9 Sudoeste 17 Oeste 0 -- -- 19
2019-06-18 00:00:00 24.2 4 Sudoeste 11 Oeste 0 -- -- 26
2019-06-17 23:00:00 25.2 0 Calma 12 Noroeste 0 -- -- 25
2019-06-17 22:00:00 27.2 7 Noroeste 63 Sudoeste 0 -- -- 19
2019-06-17 21:00:00 29.9 9 Oeste 26 Sudoeste 0 -- -- 15
2019-06-17 20:00:00 32.3 15 Oeste 27 Oeste 0 -- -- 11
2019-06-17 19:00:00 32 16 Oeste 35 Oeste 0 -- -- 12
2019-06-17 18:00:00 32.6 17 Oeste 34 Sudoeste 0 -- -- 11
2019-06-17 17:00:00 32.5 21 Oeste 43 Oeste 0 -- -- 11
2019-06-17 16:00:00 32 16 Oeste 48 Oeste 0 -- -- 13
2019-06-17 15:00:00 31.1 18 Oeste 36 Oeste 0 -- -- 14
2019-06-17 14:00:00 30 11 Oeste 31 Sudoeste 0 -- -- 17
2019-06-17 13:00:00 28.7 7 Oeste 19 Oeste 0 -- -- 21
2019-06-17 12:00:00 26.9 7 Oeste 18 Oeste 0 -- -- 23
2019-06-17 11:00:00 24.3 6 Sudoeste 19 Oeste 0 -- -- 27
2019-06-17 10:00:00 21.4 4 Sur 10 Sur 0 -- -- 31
2019-06-17 09:00:00 16.6 0 Calma 6 Nordeste 0 -- -- 48
2019-06-17 08:00:00 12.1 2 Este 6 Este 0 -- -- 64
2019-06-17 07:00:00 11.4 3 Nordeste 6 Este 0 -- -- 63
2019-06-17 06:00:00 11 3 Nordeste 5 Noroeste 0 -- -- 67
2019-06-17 05:00:00 11.3 2 Oeste 5 Noroeste 0 -- -- 67
2019-06-17 04:00:00 12.1 3 Oeste 5 Oeste 0 -- -- 67
2019-06-17 03:00:00 13.3 0 Calma 6 Noroeste 0 -- -- 61
2019-06-17 02:00:00 14.4 0 Calma 8 Oeste 0 -- -- 57
2019-06-17 01:00:00 15.7 5 Oeste 8 Noroeste 0 -- -- 55
2019-06-17 00:00:00 18.2 2 Sur 7 Sur 0 -- -- 41
2019-06-16 23:00:00 21.1 3 Sudoeste 8 Norte 0 -- -- 32
2019-06-16 22:00:00 24.8 5 Norte 12 Noroeste 0 -- -- 24
2019-06-16 21:00:00 28.3 7 Noroeste 24 Noroeste 0 -- -- 19
2019-06-16 20:00:00 29.4 11 Noroeste 25 Noroeste 0 -- -- 16
2019-06-16 19:00:00 29.9 5 Norte 23 Norte 0 -- -- 14
2019-06-16 18:00:00 30.5 7 Noroeste 24 Oeste 0 -- -- 15
2019-06-16 17:00:00 30.2 12 Oeste 23 Oeste 0 -- -- 13
2019-06-16 16:00:00 30.4 6 Norte 24 Oeste 0 -- -- 14
2019-06-16 15:00:00 29.3 10 Noroeste 21 Norte 0 -- -- 15
2019-06-16 14:00:00 27.8 5 Norte 14 Norte 0 -- -- 20
2019-06-16 13:00:00 26.6 5 Este 17 Sudeste 0 -- -- 23
2019-06-16 12:00:00 25.9 8 Este 19 Este 0 -- -- 24
2019-06-16 11:00:00 22.9 8 Este 23 Este 0 -- -- 29
2019-06-16 10:00:00 19.8 8 Este 18 Este 0 -- -- 33
2019-06-16 09:00:00 15.7 5 Este 13 Nordeste 0 -- -- 43
2019-06-16 08:00:00 12.8 3 Este 9 Nordeste 0 -- -- 53
2019-06-16 07:00:00 11.9 4 Nordeste 9 Nordeste 0 -- -- 58
2019-06-16 06:00:00 11.7 5 Nordeste 9 Nordeste 0 -- -- 62
2019-06-16 05:00:00 12.7 4 Nordeste 8 Este 0 -- -- 57
2019-06-16 04:00:00 11.8 3 Este 5 Nordeste 0 -- -- 65
2019-06-16 03:00:00 12 3 Noroeste 6 Oeste 0 -- -- 67
2019-06-16 02:00:00 13.4 0 Calma 5 Noroeste 0 -- -- 63
2019-06-16 01:00:00 15 3 Noroeste 9 Sur 0 -- -- 53
2019-06-16 00:00:00 16.2 3 Sur 6 Sur 0 -- -- 49
2019-06-15 23:00:00 19 2 Sudoeste 7 Noroeste 0 -- -- 40
2019-06-15 22:00:00 22 3 Noroeste 14 Oeste 0 -- -- 30
2019-06-15 21:00:00 25.3 11 Oeste 22 Oeste 0 -- -- 23
2019-06-15 20:00:00 27 9 Oeste 25 Oeste 0 -- -- 18
2019-06-15 19:00:00 27.5 8 Oeste 24 Noroeste 0 -- -- 15
2019-06-15 18:00:00 27.8 9 Noroeste 23 Oeste 0 -- -- 15
2019-06-15 17:00:00 26.9 10 Oeste 26 Oeste 0 -- -- 16
2019-06-15 16:00:00 25.4 12 Oeste 33 Noroeste 0 -- -- 18
2019-06-15 15:00:00 23.9 8 Sudoeste 27 Sudoeste 0 -- -- 21
2019-06-15 14:00:00 22.6 9 Sudoeste 21 Noroeste 0 -- -- 27
2019-06-15 13:00:00 21.7 7 Sudoeste 18 Sudoeste 0 -- -- 29
2019-06-15 12:00:00 20.3 4 Noroeste 13 Oeste 0 -- -- 35
2019-06-15 11:00:00 18.4 4 Noroeste 12 Oeste 0 -- -- 42
2019-06-15 10:00:00 16.7 3 Noroeste 11 Noroeste 0 -- -- 49
2019-06-15 09:00:00 14.4 4 Este 8 Este 0 -- -- 57
2019-06-15 08:00:00 9.8 3 Sudeste 6 Norte 0 -- -- 77
2019-06-15 07:00:00 8.1 0 Calma 6 Sur 0 -- -- 76
2019-06-15 06:00:00 9.2 0 Calma 5 Norte 0 -- -- 75
2019-06-15 05:00:00 10.7 3 Noroeste 8 Oeste 0 -- -- 68
2019-06-15 04:00:00 12.4 4 Noroeste 11 Sudoeste 0 -- -- 60
2019-06-15 03:00:00 14.3 7 Oeste 19 Oeste 0 -- -- 54
2019-06-15 02:00:00 15.2 13 Oeste 30 Oeste 0 -- -- 50
2019-06-15 01:00:00 16.4 22 Oeste 40 Oeste 0 -- -- 44
2019-06-15 00:00:00 17.4 21 Oeste 33 Oeste 0 -- -- 37
2019-06-14 23:00:00 18.3 21 Oeste 39 Oeste 0 -- -- 32
2019-06-14 22:00:00 19.7 22 Oeste 48 Oeste 0 -- -- 28
2019-06-14 21:00:00 21.8 26 Oeste 45 Oeste 0 -- -- 25
2019-06-14 20:00:00 23.8 26 Oeste 41 Oeste 0 -- -- 20
2019-06-14 19:00:00 24.8 22 Oeste 46 Noroeste 0 -- -- 22
2019-06-14 18:00:00 24.6 26 Oeste 43 Oeste 0 -- -- 20
2019-06-14 17:00:00 25.1 20 Oeste 47 Oeste 0 -- -- 19
2019-06-14 16:00:00 24.6 23 Oeste 48 Oeste 0 -- -- 20
2019-06-14 15:00:00 23.4 22 Oeste 45 Oeste 0 -- -- 23
2019-06-14 14:00:00 23.6 22 Oeste 45 Oeste 0 -- -- 25
2019-06-14 13:00:00 23.8 19 Oeste 36 Oeste 0 -- -- 24
2019-06-14 12:00:00 23.1 14 Noroeste 30 Noroeste 0 -- -- 27
2019-06-14 11:00:00 20.9 11 Oeste 22 Oeste 0 -- -- 30
2019-06-14 10:00:00 18.4 11 Oeste 24 Noroeste 0 -- -- 35
2019-06-14 09:00:00 16.2 8 Noroeste 18 Noroeste 0 -- -- 45
2019-06-14 08:00:00 12.9 8 Oeste 15 Oeste 0 -- -- 58
2019-06-14 07:00:00 10.8 8 Oeste 14 Noroeste 0 -- -- 63
2019-06-14 06:00:00 11.9 6 Oeste 12 Noroeste 0 -- -- 57
2019-06-14 05:00:00 12.6 4 Noroeste 12 Noroeste 0 -- -- 53
2019-06-14 04:00:00 13.7 4 Sudoeste 10 Oeste 0 -- -- 44
2019-06-14 03:00:00 16.4 2 Sudeste 12 Oeste 0 -- -- 35
2019-06-14 02:00:00 17.7 8 Sudoeste 13 Sudoeste 0 -- -- 27
2019-06-14 01:00:00 15 2 Oeste 4 Oeste 0 -- -- 42
2019-06-14 00:00:00 16.2 0 Calma 5 Sur 0 -- -- 34
2019-06-13 23:00:00 19.6 2 Sur 9 Noroeste 0 -- -- 24
2019-06-13 22:00:00 21.7 4 Noroeste 15 Noroeste 0 -- -- 19
2019-06-13 21:00:00 24.7 8 Noroeste 28 Noroeste 0 -- -- 14
2019-06-13 20:00:00 26.9 15 Oeste 35 Oeste 0 -- -- 14
2019-06-13 19:00:00 28 22 Oeste 36 Noroeste 0 -- -- 14
2019-06-13 18:00:00 29.4 14 Oeste 36 Oeste 0 -- -- 13
2019-06-13 17:00:00 28.3 9 Noroeste 35 Oeste 0 -- -- 14
2019-06-13 16:00:00 28.4 19 Oeste 39 Oeste 0 -- -- 15
2019-06-13 15:00:00 26.9 15 Sudoeste 44 Oeste 0 -- -- 16
2019-06-13 14:00:00 26.6 15 Oeste 31 Oeste 0 -- -- 17
2019-06-13 13:00:00 24.9 10 Oeste 24 Oeste 0 -- -- 20
2019-06-13 12:00:00 22.9 6 Norte 15 Nordeste 0 -- -- 31
2019-06-13 11:00:00 20.9 6 Nordeste 19 Este 0 -- -- 39
2019-06-13 10:00:00 18.9 7 Este 19 Este 0 -- -- 47
2019-06-13 09:00:00 15 3 Este 6 Este 0 -- -- 41
2019-06-13 08:00:00 10.1 0 Calma 8 Este 0 -- -- 57
2019-06-13 07:00:00 8.9 2 Este 8 Este 0 -- -- 60
2019-06-13 06:00:00 9.2 3 Este 5 Este 0 -- -- 62
2019-06-13 05:00:00 9.7 3 Sudoeste 9 Sur 0 -- -- 58
2019-06-13 04:00:00 10.1 4 Sudoeste 8 Sudoeste 0 -- -- 53
2019-06-13 03:00:00 10.7 0 Calma 9 Oeste 0 -- -- 53
2019-06-13 02:00:00 12.2 2 Sur 8 Noroeste 0 -- -- 47
2019-06-13 01:00:00 13.2 3 Sudoeste 5 Oeste 0 -- -- 44
2019-06-13 00:00:00 14.7 2 Sudeste 4 Este 0 -- -- 41
2019-06-12 23:00:00 17.4 0 Calma 6 Norte 0 -- -- 30
2019-06-12 22:00:00 21.4 3 Norte 11 Norte 0 -- -- 23
2019-06-12 21:00:00 24.9 5 Noroeste 19 Noroeste 0 -- -- 14
2019-06-12 20:00:00 27.5 6 Noroeste 31 Oeste 0 -- -- 12
2019-06-12 19:00:00 27.9 6 Norte 32 Noroeste 0 -- -- 12
2019-06-12 18:00:00 28.7 11 Noroeste 26 Oeste 0 -- -- 12
2019-06-12 17:00:00 27.2 9 Oeste 31 Oeste 0 -- -- 12
2019-06-12 16:00:00 26.5 7 Oeste 31 Noroeste 0 -- -- 12
2019-06-12 15:00:00 26.4 7 Noroeste 33 Oeste 0 -- -- 13
2019-06-12 14:00:00 23.9 4 Sudoeste 23 Sudoeste 0 -- -- 15
2019-06-12 13:00:00 22.8 5 Oeste 18 Oeste 0 -- -- 19
2019-06-12 12:00:00 21.7 5 Sudeste 20 Sudeste 0 -- -- 25
2019-06-12 11:00:00 19.8 9 Este 28 Este 0 -- -- 29
2019-06-12 10:00:00 17.7 13 Este 26 Este 0 -- -- 31
2019-06-12 09:00:00 13.2 7 Este 14 Este 0 -- -- 41
2019-06-12 08:00:00 9.8 4 Este 9 Nordeste 0 -- -- 51
2019-06-12 07:00:00 8.9 5 Este 9 Este 0 -- -- 50
2019-06-12 06:00:00 9.4 3 Este 7 Este 0 -- -- 49
2019-06-12 05:00:00 9.7 4 Este 9 Nordeste 0 -- -- 49
2019-06-12 04:00:00 10.5 4 Este 8 Nordeste 0 -- -- 44
2019-06-12 03:00:00 9.4 5 Norte 8 Sudeste 0 -- -- 49
2019-06-12 02:00:00 11.2 2 Este 5 Nordeste 0 -- -- 41
2019-06-12 01:00:00 12.2 2 Nordeste 11 Este 0 -- -- 39
2019-06-12 00:00:00 14.4 6 Sudeste 10 Este 0 -- -- 29
2019-06-11 23:00:00 16.7 3 Este 14 Nordeste 0 -- -- 25
2019-06-11 22:00:00 18.9 4 Nordeste 13 Nordeste 0 -- -- 20
2019-06-11 21:00:00 22.1 6 Nordeste 17 Nordeste 0 -- -- 15
2019-06-11 20:00:00 24 9 Nordeste 27 Norte 0 -- -- 12
2019-06-11 19:00:00 23.9 14 Norte 33 Norte 0 -- -- 13
2019-06-11 18:00:00 24.3 14 Nordeste 34 Nordeste 0 -- -- 13
2019-06-11 17:00:00 24 16 Nordeste 36 Nordeste 0 -- -- 17
2019-06-11 16:00:00 23.9 14 Norte 40 Nordeste 0 -- -- 20
2019-06-11 15:00:00 22.1 15 Norte 33 Norte 0 -- -- 25
2019-06-11 14:00:00 23.1 13 Nordeste 37 Nordeste 0 -- -- 27
2019-06-11 13:00:00 21.5 9 Nordeste 17 Norte 0 -- -- 31
2019-06-11 12:00:00 21.7 6 Sur 19 Este 0 -- -- 31
2019-06-11 11:00:00 21.7 11 Sudeste 26 Sudeste 0 -- -- 32
2019-06-11 10:00:00 19.1 4 Este 13 Este 0 -- -- 35
2019-06-11 09:00:00 16.2 3 Norte 6 Nordeste 0 -- -- 49
2019-06-11 08:00:00 11.9 0 Calma 4 Sudeste 0 -- -- 66
2019-06-11 07:00:00 12.3 0 Calma 7 Sudoeste 0 -- -- 59
2019-06-11 06:00:00 14.9 4 Sudoeste 13 Sudoeste 0 -- -- 49
2019-06-11 05:00:00 16.4 8 Oeste 13 Oeste 0 -- -- 42
2019-06-11 04:00:00 17.8 9 Sudoeste 15 Sudoeste 0 -- -- 34
2019-06-11 03:00:00 15 5 Oeste 11 Oeste 0 -- -- 36
2019-06-11 02:00:00 18 6 Sudoeste 15 Sudoeste 0 -- -- 28
2019-06-11 01:00:00 18 7 Oeste 16 Oeste 0 -- -- 26
2019-06-11 00:00:00 20.4 8 Sudoeste 17 Oeste 0 -- -- 22
2019-06-10 23:00:00 22 8 Oeste 18 Oeste 0 -- -- 19
2019-06-10 22:00:00 23.6 13 Oeste 33 Noroeste 0 -- -- 18
2019-06-10 21:00:00 26 19 Oeste 34 Oeste 0 -- -- 18
2019-06-10 20:00:00 28.3 13 Noroeste 37 Oeste 0 -- -- 17
2019-06-10 19:00:00 28.5 19 Oeste 37 Oeste 0 -- -- 17
2019-06-10 18:00:00 28.3 15 Sudoeste 34 Oeste 0 -- -- 17
2019-06-10 17:00:00 29.1 14 Noroeste 31 Oeste 0 -- -- 18
2019-06-10 16:00:00 27.9 13 Noroeste 30 Oeste 0 -- -- 20
2019-06-10 15:00:00 26.5 16 Oeste 30 Oeste 0 -- -- 21
2019-06-10 14:00:00 25.4 6 Sudoeste 24 Oeste 0 -- -- 22
2019-06-10 13:00:00 24.6 4 Sudeste 19 Oeste 0 -- -- 24
2019-06-10 12:00:00 22.7 6 Oeste 15 Oeste 0 -- -- 32
2019-06-10 11:00:00 21.2 3 Oeste 14 Oeste 0 -- -- 35
2019-06-10 10:00:00 18.9 7 Oeste 16 Oeste 0 -- -- 43
2019-06-10 09:00:00 15.8 2 Sudoeste 6 Sudoeste 0 -- -- 54
2019-06-10 08:00:00 11.4 2 Noroeste 9 Sur 0 -- -- 67
2019-06-10 07:00:00 10 3 Sur 5 Sudoeste 0 -- -- 69
2019-06-10 06:00:00 10.7 3 Oeste 7 Oeste 0 -- -- 64
2019-06-10 05:00:00 11.3 4 Sudoeste 9 Sudoeste 0 -- -- 58
2019-06-10 04:00:00 13.5 4 Sudoeste 8 Sudoeste 0 -- -- 51
2019-06-10 03:00:00 16.4 4 Sudoeste 18 Sudoeste 0 -- -- 43
2019-06-10 02:00:00 18.3 7 Sudoeste 16 Sudoeste 0 -- -- 36
2019-06-10 01:00:00 19.1 6 Sudoeste 15 Oeste 0 -- -- 33
2019-06-10 00:00:00 18.7 5 Oeste 19 Noroeste 0 -- -- 32
2019-06-09 23:00:00 18.7 6 Noroeste 22 Oeste 0 -- -- 29
2019-06-09 22:00:00 23.2 13 Noroeste 41 Oeste 0 -- -- 22
2019-06-09 21:00:00 25.1 22 Oeste 45 Noroeste 0 -- -- 19
2019-06-09 20:00:00 26.7 25 Oeste 43 Noroeste 0 -- -- 16
2019-06-09 19:00:00 27.5 26 Oeste 49 Noroeste 0 -- -- 17
2019-06-09 18:00:00 28.4 22 Oeste 44 Oeste 0 -- -- 14
2019-06-09 17:00:00 28.4 23 Noroeste 49 Oeste 0 -- -- 13
2019-06-09 16:00:00 28 21 Oeste 43 Oeste 0 -- -- 12
2019-06-09 15:00:00 27.4 21 Noroeste 40 Noroeste 0 -- -- 14
2019-06-09 14:00:00 25.9 19 Oeste 40 Oeste 0 -- -- 12
2019-06-09 13:00:00 24.3 15 Oeste 35 Oeste 0 -- -- 13
2019-06-09 12:00:00 23.6 14 Noroeste 32 Oeste 0 -- -- 17
2019-06-09 11:00:00 20.5 17 Oeste 31 Oeste 0 -- -- 28
2019-06-09 10:00:00 17.9 10 Noroeste 18 Noroeste 0 -- -- 41
2019-06-09 09:00:00 16.7 4 Oeste 17 Noroeste 0 -- -- 50
2019-06-09 08:00:00 12 0 Calma 5 Sudoeste 0 -- -- 69
2019-06-09 07:00:00 10.9 3 Sudoeste 6 Sudoeste 0 -- -- 66
2019-06-09 06:00:00 11.9 4 Sudoeste 7 Sudoeste 0 -- -- 60
2019-06-09 05:00:00 12.9 3 Sudoeste 12 Sudoeste 0 -- -- 53
2019-06-09 04:00:00 13.8 3 Oeste 10 Sudoeste 0 -- -- 48
2019-06-09 03:00:00 17.5 3 Sudoeste 12 Sudoeste 0 -- -- 32
2019-06-09 02:00:00 15.8 5 Sudoeste 8 Sudoeste 0 -- -- 42
2019-06-09 01:00:00 17.9 4 Noroeste 8 Sur 0 -- -- 35
2019-06-09 00:00:00 20 4 Sur 14 Sur 0 -- -- 26
2019-06-08 23:00:00 21.7 3 Sur 13 Sur 0 -- -- 23
2019-06-08 22:00:00 23 5 Noroeste 21 Noroeste 0 -- -- 20
2019-06-08 21:00:00 26.6 9 Oeste 27 Oeste 0 -- -- 14
2019-06-08 20:00:00 28.6 12 Sudoeste 24 Sudoeste 0 -- -- 11
2019-06-08 19:00:00 29.7 9 Noroeste 24 Noroeste 0 -- -- 11
2019-06-08 18:00:00 29.3 6 Noroeste 34 Oeste 0 -- -- 13
2019-06-08 17:00:00 28.9 12 Oeste 33 Sudoeste 0 -- -- 12
2019-06-08 16:00:00 29.2 5 Oeste 28 Oeste 0 -- -- 13
2019-06-08 15:00:00 27.4 9 Oeste 19 Oeste 0 -- -- 16
2019-06-08 14:00:00 26 6 Este 20 Sudeste 0 -- -- 21
2019-06-08 13:00:00 25 9 Este 31 Este 0 -- -- 24
2019-06-08 12:00:00 24.1 12 Este 28 Este 0 -- -- 24
2019-06-08 11:00:00 21.6 13 Este 30 Este 0 -- -- 25
2019-06-08 10:00:00 18.9 8 Este 24 Este 0 -- -- 28
2019-06-08 09:00:00 14.9 4 Este 12 Sudeste 0 -- -- 40
2019-06-08 08:00:00 9.8 2 Este 6 Este 0 -- -- 62
2019-06-08 07:00:00 8.4 2 Nordeste 5 Nordeste 0 -- -- 63
2019-06-08 06:00:00 9.2 3 Sudeste 8 Este 0 -- -- 61
2019-06-08 05:00:00 10.3 4 Nordeste 9 Este 0 -- -- 56
2019-06-08 04:00:00 10.1 3 Este 6 Nordeste 0 -- -- 61
2019-06-08 03:00:00 9.8 0 Calma 5 Oeste 0 -- -- 61
2019-06-08 02:00:00 11.6 0 Calma 10 Nordeste 0 -- -- 55
2019-06-08 01:00:00 13.6 3 Sudoeste 11 Sudoeste 0 -- -- 46
2019-06-08 00:00:00 14.2 4 Sudoeste 10 Sudoeste 0 -- -- 43
2019-06-07 23:00:00 15.8 4 Noroeste 8 Oeste 0 -- -- 38
2019-06-07 22:00:00 18.4 4 Noroeste 14 Noroeste 0 -- -- 29
2019-06-07 21:00:00 22 10 Oeste 21 Sudoeste 0 -- -- 22
2019-06-07 20:00:00 23.7 7 Sudoeste 22 Oeste 0 -- -- 19
2019-06-07 19:00:00 23.9 12 Oeste 30 Oeste 0 -- -- 18
2019-06-07 18:00:00 23.5 8 Sur 26 Oeste 0 -- -- 19
2019-06-07 17:00:00 23 12 Sudoeste 29 Oeste 0 -- -- 19
2019-06-07 16:00:00 22 11 Sur 31 Sudoeste 0 -- -- 21
2019-06-07 15:00:00 20.9 9 Sur 24 Sur 0 -- -- 25
2019-06-07 14:00:00 20 10 Sudoeste 27 Sur 0 -- -- 27
2019-06-07 13:00:00 19.1 7 Sudeste 19 Sudeste 0 -- -- 30
2019-06-07 12:00:00 17.5 5 Este 18 Oeste 0 -- -- 33
2019-06-07 11:00:00 16 10 Oeste 24 Noroeste 0 -- -- 44
2019-06-07 10:00:00 14.8 16 Oeste 32 Oeste 0 -- -- 54
2019-06-07 09:00:00 12.5 9 Oeste 18 Oeste 0 -- -- 66
2019-06-07 08:00:00 10.4 0 Calma 15 Oeste 0 -- -- 78
2019-06-07 07:00:00 10.3 3 Noroeste 34 Oeste 0 -- -- 76
2019-06-07 06:00:00 11.5 20 Oeste 41 Oeste 0 -- -- 72
2019-06-07 05:00:00 12.5 25 Oeste 45 Oeste 0 -- -- 70
2019-06-07 04:00:00 13.5 18 Oeste 45 Oeste 0 -- -- 74
2019-06-07 03:00:00 13.8 30 Oeste 54 Oeste 0 -- -- 78
2019-06-07 02:00:00 15.4 26 Oeste 52 Oeste 0 -- -- 68
2019-06-07 01:00:00 16.5 19 Noroeste 64 Oeste 0 -- -- 69
2019-06-07 00:00:00 20 33 Oeste 51 Oeste 0 -- -- 41
2019-06-06 23:00:00 21.1 25 Oeste 40 Oeste 0 -- -- 33
2019-06-06 22:00:00 22 23 Oeste 39 Oeste 0 -- -- 27
2019-06-06 21:00:00 22.2 14 Oeste 40 Oeste 0 -- -- 26
2019-06-06 20:00:00 24.1 23 Oeste 46 Oeste 0 -- -- 22
2019-06-06 19:00:00 24.5 18 Sudoeste 40 Sudoeste 0 -- -- 20
2019-06-06 18:00:00 24.8 13 Oeste 34 Oeste 0 -- -- 18
2019-06-06 17:00:00 25.3 14 Oeste 40 Noroeste 0 -- -- 19
2019-06-06 16:00:00 23.5 14 Sudoeste 32 Oeste 0 -- -- 21
2019-06-06 15:00:00 21.7 8 Sudoeste 32 Oeste 0 -- -- 24
2019-06-06 14:00:00 21.3 10 Oeste 31 Oeste 0 -- -- 25
2019-06-06 13:00:00 19.6 10 Oeste 27 Oeste 0 -- -- 28
2019-06-06 12:00:00 17.3 10 Oeste 22 Oeste 0 -- -- 34
2019-06-06 11:00:00 16.9 10 Oeste 24 Sudoeste 0 -- -- 37
2019-06-06 10:00:00 16.2 12 Noroeste 23 Oeste 0 -- -- 41
2019-06-06 09:00:00 13.1 3 Oeste 8 Noroeste 0 -- -- 52
2019-06-06 08:00:00 9.8 3 Sudeste 7 Sur 0 -- -- 66
2019-06-06 07:00:00 8.7 4 Este 8 Este 0 -- -- 66
2019-06-06 06:00:00 9.1 0 Calma 9 Sudoeste 0 -- -- 63
2019-06-06 05:00:00 12.1 4 Sudoeste 8 Sudoeste 0 -- -- 50
2019-06-06 04:00:00 13.1 4 Sur 12 Oeste 0 -- -- 47
2019-06-06 03:00:00 14 6 Oeste 19 Oeste 0 -- -- 43
2019-06-06 02:00:00 14.8 8 Oeste 17 Oeste 0 -- -- 40
2019-06-06 01:00:00 16.2 8 Oeste 24 Oeste 0 -- -- 34
2019-06-06 00:00:00 16.9 13 Oeste 20 Oeste 0 -- -- 32
2019-06-05 23:00:00 17.3 8 Oeste 15 Oeste 0 -- -- 30
2019-06-05 22:00:00 18.7 11 Oeste 33 Oeste 0 -- -- 26
2019-06-05 21:00:00 20.8 22 Oeste 34 Oeste 0 -- -- 21
2019-06-05 20:00:00 22.5 18 Oeste 44 Oeste 0 -- -- 21
2019-06-05 19:00:00 23.5 21 Oeste 45 Oeste 0 -- -- 20
2019-06-05 18:00:00 23.7 19 Oeste 42 Oeste 0 -- -- 21
2019-06-05 17:00:00 23.9 24 Oeste 49 Oeste 0 -- -- 21
2019-06-05 16:00:00 23.5 23 Noroeste 48 Noroeste 0 -- -- 21
2019-06-05 15:00:00 22.5 12 Oeste 36 Oeste 0 -- -- 22
2019-06-05 14:00:00 21.1 14 Oeste 38 Oeste 0 -- -- 24
2019-06-05 13:00:00 20.3 12 Oeste 41 Oeste 0 -- -- 27
2019-06-05 12:00:00 19.4 10 Oeste 34 Noroeste 0 -- -- 27
2019-06-05 11:00:00 19 12 Noroeste 27 Oeste 0 -- -- 29
2019-06-05 10:00:00 16.7 19 Oeste 33 Oeste 0 -- -- 40
2019-06-05 09:00:00 14.1 13 Oeste 30 Oeste 0 -- -- 52
2019-06-05 08:00:00 13 19 Oeste 31 Oeste 0 -- -- 55
2019-06-05 07:00:00 13 17 Oeste 30 Oeste 0 -- -- 55
2019-06-05 06:00:00 12.9 9 Sudoeste 24 Sudoeste 0 -- -- 57
2019-06-05 05:00:00 13.5 15 Oeste 27 Oeste 0 -- -- 55
2019-06-05 04:00:00 14.7 17 Oeste 39 Oeste 0 -- -- 48
2019-06-05 03:00:00 16.4 16 Oeste 48 Oeste 0 -- -- 46
2019-06-05 02:00:00 17.9 16 Oeste 37 Oeste 0 -- -- 44
2019-06-05 01:00:00 18.4 22 Oeste 35 Oeste 0 -- -- 46
2019-06-05 00:00:00 19.2 20 Oeste 35 Oeste 0 -- -- 48
2019-06-04 23:00:00 20.5 21 Oeste 48 Oeste 0 -- -- 47
2019-06-04 22:00:00 22.1 29 Oeste 48 Oeste 0 -- -- 45
2019-06-04 21:00:00 24.4 24 Noroeste 44 Oeste 0 -- -- 35
2019-06-04 20:00:00 25.6 22 Oeste 54 Noroeste 0 -- -- 29
2019-06-04 19:00:00 27.8 28 Noroeste 52 Oeste 0 -- -- 26
2019-06-04 18:00:00 29.4 25 Noroeste 55 Oeste 0 -- -- 24
2019-06-04 17:00:00 29.2 27 Noroeste 50 Noroeste 0 -- -- 24
2019-06-04 16:00:00 29.6 19 Noroeste 45 Noroeste 0 -- -- 24
2019-06-04 15:00:00 28.2 19 Oeste 43 Noroeste 0 -- -- 28
2019-06-04 14:00:00 26.9 16 Noroeste 33 Oeste 0 -- -- 32
2019-06-04 13:00:00 25.6 12 Oeste 30 Noroeste 0 -- -- 36
2019-06-04 12:00:00 24.7 17 Noroeste 31 Noroeste 0 -- -- 42
2019-06-04 11:00:00 23.7 13 Noroeste 29 Noroeste 0 -- -- 47
2019-06-04 10:00:00 21.9 15 Noroeste 31 Noroeste 0 -- -- 52
2019-06-04 09:00:00 20.1 18 Noroeste 29 Noroeste 0 -- -- 58
2019-06-04 08:00:00 18.5 12 Oeste 18 Oeste 0 -- -- 63
2019-06-04 07:00:00 19 8 Sudoeste 30 Oeste 0 -- -- 62
2019-06-04 06:00:00 19.9 22 Oeste 37 Oeste 0 -- -- 58
2019-06-04 05:00:00 20.4 20 Oeste 30 Oeste 0 -- -- 55
2019-06-04 04:00:00 20.8 12 Oeste 20 Oeste 0 -- -- 55
2019-06-04 03:00:00 21.6 15 Oeste 21 Oeste 0 -- -- 49
2019-06-04 02:00:00 23.3 12 Oeste 22 Oeste 0 -- -- 43
2019-06-04 01:00:00 24.4 10 Oeste 19 Oeste 0 -- -- 37
2019-06-04 00:00:00 24.9 8 Sudoeste 15 Sudoeste 0 -- -- 24
2019-06-03 23:00:00 26.4 5 Oeste 20 Oeste 0 -- -- 18
2019-06-03 22:00:00 28.9 13 Oeste 35 Oeste 0 -- -- 13
2019-06-03 21:00:00 31.6 19 Oeste 43 Oeste 0 -- -- 11
2019-06-03 20:00:00 33.8 22 Oeste 43 Oeste 0 -- -- 10
2019-06-03 19:00:00 35 23 Oeste 45 Oeste 0 -- -- 9
2019-06-03 18:00:00 34.9 14 Oeste 42 Noroeste 0 -- -- 10
2019-06-03 17:00:00 35.4 18 Noroeste 39 Noroeste 0 -- -- 10
2019-06-03 16:00:00 35 12 Noroeste 41 Noroeste 0 -- -- 11
2019-06-03 15:00:00 34.1 14 Oeste 41 Noroeste 0 -- -- 11
2019-06-03 14:00:00 32.7 13 Oeste 33 Oeste 0 -- -- 12
2019-06-03 13:00:00 31.3 10 Noroeste 27 Oeste 0 -- -- 18
2019-06-03 12:00:00 29.9 13 Oeste 23 Oeste 0 -- -- 18
2019-06-03 11:00:00 27.1 11 Oeste 21 Noroeste 0 -- -- 23
2019-06-03 10:00:00 25.3 4 Noroeste 10 Oeste 0 -- -- 29
2019-06-03 09:00:00 21.9 2 Sur 6 Sur 0 -- -- 36
2019-06-03 08:00:00 19.3 0 Calma 9 Oeste 0 -- -- 48
2019-06-03 07:00:00 18.3 4 Noroeste 10 Noroeste 0 -- -- 43
2019-06-03 06:00:00 18.2 2 Norte 4 Noroeste 0 -- -- 48
2019-06-03 05:00:00 19.6 0 Calma 12 Oeste 0 -- -- 46
2019-06-03 04:00:00 23 9 Oeste 16 Oeste 0 -- -- 30
2019-06-03 03:00:00 22.1 5 Oeste 11 Oeste 0 -- -- 34
2019-06-03 02:00:00 21.9 4 Sudoeste 10 Sudoeste 0 -- -- 39
2019-06-03 01:00:00 23.5 5 Sudoeste 12 Sudoeste 0 -- -- 34
2019-06-03 00:00:00 23.4 2 Oeste 8 Noroeste 0 -- -- 32
2019-06-02 23:00:00 26.6 4 Sudoeste 10 Sudoeste 0 -- -- 26
2019-06-02 22:00:00 28.6 6 Oeste 13 Noroeste 0 -- -- 21
2019-06-02 21:00:00 31.1 5 Noroeste 24 Noroeste 0 -- -- 18
2019-06-02 20:00:00 32.8 12 Norte 35 Noroeste 0 -- -- 17
2019-06-02 19:00:00 34.4 9 Noroeste 32 Noroeste 0 -- -- 15
2019-06-02 18:00:00 36.1 10 Oeste 32 Noroeste 0 -- -- 11
2019-06-02 17:00:00 35.4 9 Noroeste 42 Oeste 0 -- -- 11
2019-06-02 16:00:00 35.6 7 Sudoeste 23 Oeste 0 -- -- 11
2019-06-02 15:00:00 34.4 8 Oeste 18 Oeste 0 -- -- 12
2019-06-02 14:00:00 32.3 4 Este 13 Norte 0 -- -- 14
2019-06-02 13:00:00 30.9 6 Este 18 Este 0 -- -- 19
2019-06-02 12:00:00 28.7 8 Este 22 Este 0 -- -- 20
2019-06-02 11:00:00 26.6 11 Este 26 Este 0 -- -- 23
2019-06-02 10:00:00 24 10 Este 24 Este 0 -- -- 26
2019-06-02 09:00:00 21.1 6 Este 15 Este 0 -- -- 32
2019-06-02 08:00:00 18.2 6 Este 15 Nordeste 0 -- -- 39
2019-06-02 07:00:00 18.1 7 Este 19 Este 0 -- -- 37
2019-06-02 06:00:00 18.1 4 Este 10 Sudeste 0 -- -- 41
2019-06-02 05:00:00 17.3 6 Nordeste 10 Nordeste 0 -- -- 50
2019-06-02 04:00:00 17.9 5 Nordeste 9 Nordeste 0 -- -- 50
2019-06-02 03:00:00 17.7 3 Nordeste 6 Noroeste 0 -- -- 53
2019-06-02 02:00:00 19 5 Noroeste 8 Noroeste 0 -- -- 46
2019-06-02 01:00:00 20.4 5 Oeste 7 Noroeste 0 -- -- 41
2019-06-02 00:00:00 22.9 0 Calma 11 Noroeste 0 -- -- 32
2019-06-01 23:00:00 25.9 0 Calma 9 Norte 0 -- -- 27
2019-06-01 22:00:00 28.5 6 Norte 14 Noroeste 0 -- -- 21
2019-06-01 21:00:00 31.6 5 Norte 13 Noroeste 0 -- -- 17
2019-06-01 20:00:00 35.7 5 Oeste 19 Noroeste 0 -- -- 11
2019-06-01 19:00:00 35.4 4 Nordeste 13 Norte 0 -- -- 10
2019-06-01 18:00:00 34.8 7 Nordeste 16 Nordeste 0 -- -- 11
2019-06-01 17:00:00 35.1 7 Sudoeste 19 Oeste 0 -- -- 10
2019-06-01 16:00:00 34.9 4 Sudeste 15 Oeste 0 -- -- 11
2019-06-01 15:00:00 32.5 5 Norte 14 Sudoeste 0 -- -- 13
2019-06-01 14:00:00 31.6 5 Este 24 Este 0 -- -- 18
2019-06-01 13:00:00 29.3 9 Este 30 Este 0 -- -- 22
2019-06-01 12:00:00 27.2 10 Este 31 Este 0 -- -- 26
2019-06-01 11:00:00 25.1 11 Este 35 Este 0 -- -- 30
2019-06-01 10:00:00 22.9 16 Este 32 Este 0 -- -- 33
2019-06-01 09:00:00 20.4 8 Este 21 Este 0 -- -- 39
2019-06-01 08:00:00 17.7 6 Este 18 Este 0 -- -- 44
2019-06-01 07:00:00 18 7 Este 22 Este 0 -- -- 42
2019-06-01 06:00:00 16.5 8 Este 17 Nordeste 0 -- -- 41
2019-06-01 05:00:00 17.2 4 Este 17 Nordeste 0 -- -- 36
2019-06-01 04:00:00 17 6 Este 12 Este 0 -- -- 41
2019-06-01 03:00:00 16.9 4 Este 6 Nordeste 0 -- -- 45
2019-06-01 02:00:00 16.7 0 Calma 6 Este 0 -- -- 48
2019-06-01 01:00:00 19.1 2 Este 6 Este 0 -- -- 39
2019-06-01 00:00:00 19.9 3 Este 6 Nordeste 0 -- -- 38
2019-05-31 23:00:00 22.1 0 Calma 3 Norte 0 -- -- 34
2019-05-31 22:00:00 26.9 0 Calma 9 Sudeste 0 -- -- 26
2019-05-31 21:00:00 32.1 4 Sudeste 14 Sudeste 0 -- -- 12
2019-05-31 20:00:00 34.1 8 Este 19 Este 0 -- -- 11
2019-05-31 19:00:00 34.3 6 Este 24 Este 0 -- -- 10
2019-05-31 18:00:00 34.2 5 Este 22 Este 0 -- -- 11
2019-05-31 17:00:00 33.9 8 Sudeste 22 Este 0 -- -- 12
2019-05-31 16:00:00 33.3 11 Sudeste 26 Sudeste 0 -- -- 13
2019-05-31 15:00:00 32.3 8 Nordeste 24 Este 0 -- -- 14
2019-05-31 14:00:00 31.1 5 Este 24 Sudeste 0 -- -- 15
2019-05-31 13:00:00 29.4 12 Sudeste 33 Este 0 -- -- 19
2019-05-31 12:00:00 27.8 12 Este 31 Sudeste 0 -- -- 22
2019-05-31 11:00:00 25.3 15 Sudeste 33 Este 0 -- -- 27
2019-05-31 10:00:00 22.8 11 Este 26 Este 0 -- -- 31
2019-05-31 09:00:00 20.5 13 Este 26 Este 0 -- -- 31
2019-05-31 08:00:00 19 9 Este 29 Sudeste 0 -- -- 34
2019-05-31 07:00:00 17.7 5 Este 26 Este 0 -- -- 34
2019-05-31 06:00:00 20.2 11 Este 30 Este 0 -- -- 28
2019-05-31 05:00:00 17.1 5 Nordeste 11 Nordeste 0 -- -- 36
2019-05-31 04:00:00 16.9 6 Nordeste 9 Este 0 -- -- 39
2019-05-31 03:00:00 17.5 5 Nordeste -- -- 0 -- -- 38
2019-05-31 02:00:00 18.2 4 Este 10 Nordeste 0 -- -- 38
2019-05-31 01:00:00 17.6 2 Norte 8 Sudoeste 0 -- -- 44
2019-05-31 00:00:00 19.4 3 Este 5 Este 0 -- -- 38
2019-05-30 23:00:00 21.2 3 Norte 5 Norte 0 -- -- 33
2019-05-30 22:00:00 26.6 0 Calma 13 Sur 0 -- -- 22
2019-05-30 21:00:00 30.5 7 Sudeste 19 Este 0 -- -- 13
2019-05-30 20:00:00 32 10 Sudeste 26 Este 0 -- -- 11
2019-05-30 19:00:00 32.4 9 Sudeste 30 Sudeste 0 -- -- 11
2019-05-30 18:00:00 32.3 9 Sudeste 32 Sur 0 -- -- 12
2019-05-30 17:00:00 31.9 11 Sudeste 32 Sur 0 -- -- 13
2019-05-30 16:00:00 31.4 10 Este 31 Sudeste 0 -- -- 14
2019-05-30 15:00:00 29.8 12 Este 35 Sudeste 0 -- -- 17
2019-05-30 14:00:00 28.5 6 Este 26 Este 0 -- -- 20
2019-05-30 13:00:00 26.2 15 Sudeste 30 Este 0 -- -- 23
2019-05-30 12:00:00 25 12 Este 30 Sudeste 0 -- -- 25
2019-05-30 11:00:00 22.5 15 Este 31 Este 0 -- -- 29
2019-05-30 10:00:00 20.2 13 Este 27 Este 0 -- -- 33
2019-05-30 09:00:00 18.2 9 Este 26 Este 0 -- -- 39
2019-05-30 08:00:00 15.8 6 Este 26 Este 0 -- -- 45
2019-05-30 07:00:00 15.3 8 Este 23 Este 0 -- -- 45
2019-05-30 06:00:00 17.6 12 Este 24 Este 0 -- -- 37
2019-05-30 05:00:00 18.4 8 Este 24 Sudeste 0 -- -- 36
2019-05-30 04:00:00 19.8 14 Este 33 Sudeste 0 -- -- 33
2019-05-30 03:00:00 21.1 15 Este 30 Este 0 -- -- 30
2019-05-30 02:00:00 21.4 13 Este 23 Este 0 -- -- 27
2019-05-30 01:00:00 18.6 3 Este 9 Sudeste 0 -- -- 33
2019-05-30 00:00:00 21.4 5 Sudeste 14 Este 0 -- -- 27
2019-05-29 23:00:00 23.9 8 Sudeste 32 Nordeste 0 -- -- 22
2019-05-29 22:00:00 24.9 11 Nordeste 27 Nordeste 0 -- -- 21
2019-05-29 21:00:00 27.2 10 Nordeste 27 Nordeste 0 -- -- 18
2019-05-29 20:00:00 29.2 12 Nordeste 24 Nordeste 0 -- -- 13
2019-05-29 19:00:00 30.1 11 Nordeste 28 Nordeste 0 -- -- 15
2019-05-29 18:00:00 29.6 7 Nordeste 20 Sur 0 -- -- 17
2019-05-29 17:00:00 29.2 6 Sur 22 Sudeste 0 -- -- 17
2019-05-29 16:00:00 27.5 7 Sur 25 Este 0 -- -- 19
2019-05-29 15:00:00 26 10 Sudeste 29 Este 0 -- -- 21
2019-05-29 14:00:00 25 11 Este 30 Este 0 -- -- 22
2019-05-29 13:00:00 23.1 11 Sudeste 34 Sudeste 0 -- -- 24
2019-05-29 12:00:00 20.7 18 Este 39 Este 0 -- -- 28
2019-05-29 11:00:00 19.3 16 Este 40 Este 0 -- -- 31
2019-05-29 10:00:00 17 23 Este 44 Este 0 -- -- 35
2019-05-29 09:00:00 15.8 21 Este 39 Este 0 -- -- 39
2019-05-29 08:00:00 14.2 7 Este 33 Este 0 -- -- 44
2019-05-29 07:00:00 15 19 Este 39 Este 0 -- -- 41
2019-05-29 06:00:00 14.8 9 Nordeste 19 Este 0 -- -- 43
2019-05-29 05:00:00 16.1 9 Este 33 Este 0 -- -- 39
2019-05-29 04:00:00 17.6 16 Este 36 Sudeste 0 -- -- 34
2019-05-29 03:00:00 18.8 16 Este 35 Este 0 -- -- 32
2019-05-29 02:00:00 19.7 17 Este 35 Este 0 -- -- 29
2019-05-29 01:00:00 21.3 14 Este 30 Este 0 -- -- 25
2019-05-29 00:00:00 21.8 14 Este 34 Este 0 -- -- 26
2019-05-28 23:00:00 22.9 11 Este 28 Este 0 -- -- 25
2019-05-28 22:00:00 24.1 4 Este 23 Nordeste 0 -- -- 22
2019-05-28 21:00:00 26.3 10 Nordeste 37 Nordeste 0 -- -- 18
2019-05-28 20:00:00 28.2 15 Nordeste -- -- -- -- -- 15
2019-05-28 19:00:00 -- -- -- -- -- -- -- -- --
2019-05-28 18:00:00 -- -- -- -- -- -- -- -- --
2019-05-28 17:00:00 30.8 -- -- -- -- -- -- -- 17
2019-05-28 16:00:00 30.6 -- -- -- -- -- -- -- 17
2019-05-28 15:00:00 -- -- -- -- -- -- -- -- --
2019-05-28 14:00:00 -- -- -- -- -- -- -- -- --
2019-05-28 13:00:00 26.8 8 Este 24 Este 0 -- -- 23
2019-05-28 12:00:00 25.1 13 Sudeste 29 Sudeste 0 -- -- 28
2019-05-28 11:00:00 23.3 12 Este 30 Sudeste 0 -- -- 32
2019-05-28 10:00:00 20.4 9 Este 28 Este 0 -- -- 43
2019-05-28 09:00:00 18.1 13 Este 26 Sudeste 0 -- -- 48
2019-05-28 08:00:00 16.6 10 Este 26 Este 0 -- -- 53
2019-05-28 07:00:00 16.4 7 Este 21 Este 0 -- -- 53
2019-05-28 06:00:00 17.5 9 Este 23 Este 0 -- -- 48
2019-05-28 05:00:00 18.5 10 Este 28 Este 0 -- -- 45
2019-05-28 04:00:00 18.8 6 Este 23 Este 0 -- -- 46
2019-05-28 03:00:00 18.9 5 Este 11 Nordeste 0 -- -- 45
2019-05-28 02:00:00 19.3 5 Nordeste 12 Nordeste 0 -- -- 42
2019-05-28 01:00:00 18.2 2 Este 8 Nordeste 0 -- -- 48
2019-05-28 00:00:00 20.5 2 Este 6 Nordeste 0 -- -- 39
2019-05-27 23:00:00 23.6 4 Nordeste 17 Este 0 -- -- 29
2019-05-27 22:00:00 26.2 6 Este 21 Norte 0 -- -- 24
2019-05-27 21:00:00 28.7 9 Norte 20 Norte 0 -- -- 20
2019-05-27 20:00:00 31.6 5 Nordeste 17 Nordeste 0 -- -- 20
2019-05-27 19:00:00 32.4 7 Noroeste 27 Noroeste 0 -- -- 18
2019-05-27 18:00:00 32.5 5 Nordeste 30 Noroeste 0 -- -- 16
2019-05-27 17:00:00 32.9 9 Noroeste 26 Noroeste 0 -- -- 15
2019-05-27 16:00:00 31.2 7 Nordeste 28 Oeste 0 -- -- 18
2019-05-27 15:00:00 31 7 Noroeste 22 Sudoeste 0 -- -- 20
2019-05-27 14:00:00 29.5 6 Oeste 21 Noroeste 0 -- -- 21
2019-05-27 13:00:00 28.4 6 Norte 14 Nordeste 0 -- -- 23
2019-05-27 12:00:00 26.8 5 Este 18 Este 0 -- -- 24
2019-05-27 11:00:00 24.4 7 Este 19 Sudeste 0 -- -- 30
2019-05-27 10:00:00 21.6 7 Este 19 Sudeste 0 -- -- 36
2019-05-27 09:00:00 18.1 4 Nordeste 9 Nordeste 0 -- -- 49
2019-05-27 08:00:00 14 4 Nordeste 8 Este 0 -- -- 62
2019-05-27 07:00:00 14.3 5 Nordeste 12 Este 0 -- -- 59
2019-05-27 06:00:00 14.9 3 Este 11 Este 0 -- -- 55
2019-05-27 05:00:00 14.5 3 Nordeste 7 Nordeste 0 -- -- 58
2019-05-27 04:00:00 15.5 3 Este 9 Oeste 0 -- -- 54
2019-05-27 03:00:00 16.5 3 Este 6 Este 0 -- -- 49
2019-05-27 02:00:00 17.7 3 Este 12 Sudoeste 0 -- -- 45
2019-05-27 01:00:00 20.5 3 Nordeste 12 Sudeste 0 -- -- 35
2019-05-27 00:00:00 21.7 4 Nordeste 19 Nordeste 0 -- -- 32
2019-05-26 23:00:00 23.2 4 Este 14 Nordeste 0 -- -- 28
2019-05-26 22:00:00 24.4 6 Nordeste 19 Nordeste 0 -- -- 26
2019-05-26 21:00:00 27.5 12 Nordeste 24 Nordeste 0 -- -- 22
2019-05-26 20:00:00 29.7 9 Nordeste 27 Nordeste 0 -- -- 19
2019-05-26 19:00:00 30.6 8 Este 28 Norte 0 -- -- 19
2019-05-26 18:00:00 30.4 9 Nordeste 25 Nordeste 0 -- -- 20
2019-05-26 17:00:00 29.8 13 Norte 26 Norte 0 -- -- 21
2019-05-26 16:00:00 28.9 4 Este 22 Oeste 0 -- -- 22
2019-05-26 15:00:00 27.4 5 Sur 24 Sudeste 0 -- -- 24
2019-05-26 14:00:00 26.1 4 Sudoeste 18 Nordeste 0 -- -- 25
2019-05-26 13:00:00 24.3 5 Nordeste 18 Este 0 -- -- 29
2019-05-26 12:00:00 22.4 6 Este 25 Este 0 -- -- 30
2019-05-26 11:00:00 20.7 11 Este 29 Sudeste 0 -- -- 32
2019-05-26 10:00:00 18.9 13 Este 24 Este 0 -- -- 36
2019-05-26 09:00:00 16.2 2 Sudeste 10 Nordeste 0 -- -- 47
2019-05-26 08:00:00 13.5 4 Nordeste 12 Sudeste 0 -- -- 57
2019-05-26 07:00:00 13.4 4 Nordeste 15 Nordeste 0 -- -- 57
2019-05-26 06:00:00 14.6 7 Nordeste 25 Nordeste 0 -- -- 52
2019-05-26 05:00:00 16.2 10 Este 26 Sudeste 0 -- -- 44
2019-05-26 04:00:00 18.3 11 Este 35 Este 0 -- -- 32
2019-05-26 03:00:00 17.5 7 Este 24 Sudeste 0 -- -- 29
2019-05-26 02:00:00 19.3 5 Sudeste 21 Sudeste 0 -- -- 29
2019-05-26 01:00:00 21.3 8 Este 28 Este 0 -- -- 28
2019-05-26 00:00:00 20.5 4 Este 27 Nordeste 0 -- -- 28
2019-05-25 23:00:00 21.8 12 Nordeste 38 Norte 0 -- -- 26
2019-05-25 22:00:00 22.8 12 Nordeste 29 Nordeste 0 -- -- 24
2019-05-25 21:00:00 24.7 15 Nordeste 28 Norte 0 -- -- 22
2019-05-25 20:00:00 26.8 11 Nordeste 27 Nordeste 0 -- -- 20
2019-05-25 19:00:00 27.2 14 Norte 30 Norte 0 -- -- 19
2019-05-25 18:00:00 27.6 9 Nordeste 22 Nordeste 0 -- -- 19
2019-05-25 17:00:00 27.1 10 Nordeste 43 Nordeste 0 -- -- 20
2019-05-25 16:00:00 26.4 8 Sudeste 28 Este 0 -- -- 20
2019-05-25 15:00:00 25.8 9 Este 25 Sudeste 0 -- -- 21
2019-05-25 14:00:00 24.6 5 Sudeste 29 Este 0 -- -- 22
2019-05-25 13:00:00 23.4 13 Este 36 Este 0 -- -- 26
2019-05-25 12:00:00 21.9 10 Este 27 Este 0 -- -- 29
2019-05-25 11:00:00 20.4 9 Este 27 Este 0 -- -- 35
2019-05-25 10:00:00 18.6 9 Este 24 Este 0 -- -- 40
2019-05-25 09:00:00 15.6 6 Este 23 Este 0 -- -- 53
2019-05-25 08:00:00 12.4 5 Nordeste 9 Nordeste 0 -- -- 62
2019-05-25 07:00:00 11.7 2 Norte 18 Sudeste 0 -- -- 61
2019-05-25 06:00:00 14.8 12 Sudeste 23 Sudeste 0 -- -- 49
2019-05-25 05:00:00 15.4 9 Este 26 Sudeste 0 -- -- 46
2019-05-25 04:00:00 15.7 16 Sudeste 44 Este 0 -- -- 46
2019-05-25 03:00:00 17.2 21 Este 43 Este 0 -- -- 39
2019-05-25 02:00:00 17.6 9 Este 28 Este 0 -- -- 37
2019-05-25 01:00:00 18.6 16 Este 30 Este 0 -- -- 33
2019-05-25 00:00:00 19.1 12 Este 24 Este 0 -- -- 31
2019-05-24 23:00:00 19.6 6 Este 18 Este 0 -- -- 28
2019-05-24 22:00:00 21.1 6 Este 19 Nordeste 0 -- -- 29
2019-05-24 21:00:00 23.7 12 Nordeste 32 Nordeste 0 -- -- 23
2019-05-24 20:00:00 26 16 Nordeste 33 Nordeste 0 -- -- 20
2019-05-24 19:00:00 27.8 9 Este 28 Nordeste 0 -- -- 17
2019-05-24 18:00:00 28.5 9 Este 28 Norte 0 -- -- 17
2019-05-24 17:00:00 28 11 Nordeste 29 Nordeste 0 -- -- 15
2019-05-24 16:00:00 27.8 8 Este 29 Este 0 -- -- 22
2019-05-24 15:00:00 27.3 11 Este 28 Este 0 -- -- 24
2019-05-24 14:00:00 26.7 10 Este 30 Este 0 -- -- 25
2019-05-24 13:00:00 25.2 6 Sudeste 21 Este 0 -- -- 29
2019-05-24 12:00:00 24.3 7 Este 25 Este 0 -- -- 32
2019-05-24 11:00:00 22.7 4 Este 13 Sur 0 -- -- 36
2019-05-24 10:00:00 20.3 4 Nordeste 10 Norte 0 -- -- 43
2019-05-24 09:00:00 16.1 0 Calma 6 Nordeste 0 -- -- 60
2019-05-24 08:00:00 14.5 3 Este 8 Nordeste 0 -- -- 65
2019-05-24 07:00:00 14.1 4 Este 8 Nordeste 0 -- -- 67
2019-05-24 06:00:00 13.8 0 Calma 4 Nordeste 0 -- -- 69
2019-05-24 05:00:00 15.3 0 Calma 10 Sudoeste 0 -- -- 62
2019-05-24 04:00:00 15.9 4 Sudoeste 12 Sudoeste 0 -- -- 55
2019-05-24 03:00:00 18 5 Sudoeste 12 Sudoeste 0 -- -- 48
2019-05-24 02:00:00 19.2 5 Sudoeste 11 Sudoeste 0 -- -- 44
2019-05-24 01:00:00 20.3 4 Sudoeste 19 Oeste 0 -- -- 39
2019-05-24 00:00:00 20.5 9 Sudoeste 17 Sudoeste 0 -- -- 41
2019-05-23 23:00:00 21.1 3 Noroeste 12 Noroeste 0 -- -- 37
2019-05-23 22:00:00 23 7 Noroeste 23 Oeste 0 -- -- 30
2019-05-23 21:00:00 26.5 13 Noroeste 35 Noroeste 0 -- -- 20
2019-05-23 20:00:00 29.3 23 Noroeste 42 Noroeste 0 -- -- 16
2019-05-23 19:00:00 30.8 22 Oeste 39 Noroeste 0 -- -- 15
2019-05-23 18:00:00 31.5 18 Noroeste 41 Oeste 0 -- -- 16
2019-05-23 17:00:00 31.7 25 Noroeste 45 Oeste 0 -- -- 17
2019-05-23 16:00:00 31.2 22 Oeste 50 Noroeste 0 -- -- 20
2019-05-23 15:00:00 29.5 22 Oeste 41 Noroeste 0 -- -- 22
2019-05-23 14:00:00 29.5 13 Noroeste 31 Noroeste 0 -- -- 23
2019-05-23 13:00:00 27.8 13 Oeste 27 Noroeste -- -- -- 26
2019-05-23 12:00:00 25.4 6 Sudoeste 15 Noroeste -- -- -- 35
2019-05-23 11:00:00 21.9 3 Nordeste 22 Nordeste 0 -- -- 46
2019-05-23 10:00:00 20.3 3 Sudeste 6 Sur 0 -- -- 50
2019-05-23 09:00:00 16.2 0 Calma 8 Sudeste 0 -- -- 61
2019-05-23 08:00:00 13.2 2 Este 5 Nordeste 0 -- -- 70
2019-05-23 07:00:00 11.6 2 Nordeste 4 Nordeste 0 -- -- 76
2019-05-23 06:00:00 12.3 2 Oeste 5 Noroeste 0 -- -- 70
2019-05-23 05:00:00 13.1 4 Noroeste 6 Noroeste 0 -- -- 67
2019-05-23 04:00:00 13.9 4 Sudoeste 11 Sudoeste 0 -- -- 63
2019-05-23 03:00:00 15.4 6 Sudoeste 12 Noroeste 0 -- -- 57
2019-05-23 02:00:00 15.1 0 Calma 3 Sur 0 -- -- 62
2019-05-23 01:00:00 17 0 Calma 11 Sudoeste 0 -- -- 56
2019-05-23 00:00:00 19.3 6 Sudoeste 11 Sudoeste 0 -- -- 44
2019-05-22 23:00:00 20.6 3 Sudoeste 7 Noroeste 0 -- -- 39
2019-05-22 22:00:00 23.2 4 Noroeste 15 Noroeste 0 -- -- 30
2019-05-22 21:00:00 27.4 9 Noroeste 25 Noroeste 0 -- -- 22
2019-05-22 20:00:00 29.4 16 Oeste 29 Noroeste 0 -- -- 18
2019-05-22 19:00:00 30.9 10 Noroeste 30 Oeste 0 -- -- 16
2019-05-22 18:00:00 30.7 11 Noroeste 24 Noroeste 0 -- -- 15
2019-05-22 17:00:00 29.1 6 Oeste 37 Oeste 0 -- -- 16
2019-05-22 16:00:00 29.9 9 Norte 27 Noroeste 0 -- -- 18
2019-05-22 15:00:00 29.1 8 Noroeste 21 Oeste 0 -- -- 19
2019-05-22 14:00:00 27 4 Sur 14 Sudoeste 0 -- -- 23
2019-05-22 13:00:00 25.8 6 Sudeste 19 Sudeste 0 -- -- 28
2019-05-22 12:00:00 23.8 10 Este 24 Este 0 -- -- 32
2019-05-22 11:00:00 21.6 9 Este 26 Este 0 -- -- 40
2019-05-22 10:00:00 19.4 8 Este 53 Nordeste 0 -- -- 47
2019-05-22 09:00:00 16.3 5 Este 13 Sudeste 0 -- -- 53
2019-05-22 08:00:00 12.8 5 Nordeste 14 Nordeste 0 -- -- 61
2019-05-22 07:00:00 12.3 2 Este 10 Nordeste 0 -- -- 60
2019-05-22 06:00:00 13.2 5 Nordeste 10 Nordeste 0 -- -- 58
2019-05-22 05:00:00 12.7 4 Nordeste 9 Nordeste 0 -- -- 64
2019-05-22 04:00:00 13.3 5 Nordeste 9 Nordeste 0 -- -- 67
2019-05-22 03:00:00 13.7 4 Este 6 Nordeste 0 -- -- 66
2019-05-22 02:00:00 13.8 2 Nordeste 6 Nordeste 0 -- -- 66
2019-05-22 01:00:00 14.3 2 Noroeste 8 Noroeste 0 -- -- 65
2019-05-22 00:00:00 16 2 Oeste 5 Noroeste 0 -- -- 59